Time,TemperatureF,DewpointF,PressureIn,WindDirection,WindDirectionDegrees,WindSpeedMPH,WindSpeedGustMPH,Humidity,HourlyPrecipIn,Conditions,Clouds,dailyrainin,SoftwareType,DateUTC
2013-06-16 00:00:00,61.9,59.9,29.86,NNE,21,0.0,0.0,93,0.00,,,0.01,meteohub,2013-06-16 05:00:00,
2013-06-16 00:05:00,62.1,60.1,29.86,NNE,21,0.0,0.0,93,0.00,,,0.01,meteohub,2013-06-16 05:05:00,
2013-06-16 00:10:00,61.9,59.9,29.86,NNE,21,0.0,0.0,93,0.00,,,0.01,meteohub,2013-06-16 05:10:00,
2013-06-16 00:15:00,61.9,59.9,29.86,NNE,21,0.0,0.0,93,0.00,,,0.01,meteohub,2013-06-16 05:15:00,
2013-06-16 00:20:00,61.9,59.9,29.86,NNE,21,0.0,0.0,93,0.00,,,0.01,meteohub,2013-06-16 05:20:00,
2013-06-16 00:25:00,61.9,59.9,29.86,NNE,21,0.0,0.0,93,0.00,,,0.01,meteohub,2013-06-16 05:25:00,
2013-06-16 00:30:00,61.9,59.9,29.86,NNE,21,0.0,0.0,93,0.00,,,0.01,meteohub,2013-06-16 05:30:00,
2013-06-16 00:35:00,61.9,59.9,29.86,NNE,21,0.0,0.0,93,0.00,,,0.01,meteohub,2013-06-16 05:35:00,
2013-06-16 00:40:00,61.9,59.9,29.86,NNE,21,0.0,0.0,93,0.00,,,0.01,meteohub,2013-06-16 05:40:00,
2013-06-16 00:45:00,61.7,59.7,29.86,NNE,21,0.0,0.0,93,0.00,,,0.01,meteohub,2013-06-16 05:45:00,
2013-06-16 00:50:00,61.2,59.2,29.85,NNE,21,0.0,0.0,93,0.00,,,0.01,meteohub,2013-06-16 05:50:00,
2013-06-16 00:55:00,61.0,59.0,29.85,NNE,21,0.0,0.0,93,0.00,,,0.01,meteohub,2013-06-16 05:55:00,
2013-06-16 01:01:00,60.6,58.6,29.85,NNE,21,0.0,0.0,93,0.00,,,0.01,meteohub,2013-06-16 06:01:00,
2013-06-16 01:06:00,60.4,58.5,29.85,NNE,21,0.0,0.0,93,0.00,,,0.01,meteohub,2013-06-16 06:06:00,
2013-06-16 01:11:00,60.3,58.3,29.86,NNE,21,0.0,0.0,93,0.00,,,0.01,meteohub,2013-06-16 06:11:00,
2013-06-16 01:16:00,60.3,58.3,29.86,NNE,21,0.0,0.0,93,0.00,,,0.01,meteohub,2013-06-16 06:16:00,
2013-06-16 01:21:00,60.1,58.3,29.86,NNE,21,0.0,0.0,94,0.00,,,0.01,meteohub,2013-06-16 06:21:00,
2013-06-16 01:26:00,60.3,58.5,29.86,NNE,21,0.0,0.0,94,0.00,,,0.01,meteohub,2013-06-16 06:26:00,
2013-06-16 01:31:00,60.1,58.3,29.86,NNE,21,0.0,0.0,94,0.00,,,0.01,meteohub,2013-06-16 06:31:00,
2013-06-16 01:36:00,59.7,57.9,29.86,NNE,21,0.0,0.0,94,0.00,,,0.01,meteohub,2013-06-16 06:36:00,
2013-06-16 01:41:00,59.5,57.7,29.85,NNE,21,0.0,0.0,94,0.00,,,0.01,meteohub,2013-06-16 06:41:00,
2013-06-16 01:46:00,59.4,57.6,29.85,NNE,21,0.0,0.0,94,0.00,,,0.01,meteohub,2013-06-16 06:46:00,
2013-06-16 01:51:00,59.0,57.2,29.85,NNE,21,0.0,0.0,94,0.00,,,0.01,meteohub,2013-06-16 06:51:00,
2013-06-16 01:56:00,59.0,57.2,29.85,NNE,21,0.0,0.0,94,0.00,,,0.01,meteohub,2013-06-16 06:56:00,
2013-06-16 02:01:00,59.0,57.2,29.85,NNE,21,0.0,0.0,94,0.00,,,0.01,meteohub,2013-06-16 07:01:00,
2013-06-16 02:06:00,59.0,57.2,29.85,NNE,21,0.0,0.0,94,0.00,,,0.01,meteohub,2013-06-16 07:06:00,
2013-06-16 02:12:00,59.0,57.2,29.85,NNE,21,0.0,0.0,94,0.00,,,0.01,meteohub,2013-06-16 07:12:00,
2013-06-16 02:17:00,59.0,57.2,29.85,NNE,21,0.0,0.0,94,0.00,,,0.01,meteohub,2013-06-16 07:17:00,
2013-06-16 02:22:00,58.6,56.8,29.85,NNE,21,0.0,0.0,94,0.00,,,0.01,meteohub,2013-06-16 07:22:00,
2013-06-16 02:27:00,58.6,56.8,29.85,NNE,21,0.0,0.0,94,0.00,,,0.01,meteohub,2013-06-16 07:27:00,
2013-06-16 02:32:00,58.5,56.7,29.85,NNE,21,0.0,0.0,94,0.00,,,0.01,meteohub,2013-06-16 07:32:00,
2013-06-16 02:37:00,58.5,56.7,29.85,NNE,21,0.0,0.0,94,0.00,,,0.01,meteohub,2013-06-16 07:37:00,
2013-06-16 02:42:00,58.3,56.5,29.85,NNE,21,0.0,0.0,94,0.00,,,0.01,meteohub,2013-06-16 07:42:00,
2013-06-16 02:47:00,58.3,56.5,29.85,NNE,21,0.0,0.0,94,0.00,,,0.01,meteohub,2013-06-16 07:47:00,
2013-06-16 02:52:00,58.1,56.3,29.85,NNE,21,0.0,0.0,94,0.00,,,0.01,meteohub,2013-06-16 07:52:00,
2013-06-16 02:57:00,57.9,56.1,29.85,NNE,21,0.0,0.0,94,0.00,,,0.01,meteohub,2013-06-16 07:57:00,
2013-06-16 03:02:00,57.9,56.1,29.85,NNE,21,0.0,0.0,94,0.00,,,0.01,meteohub,2013-06-16 08:02:00,
2013-06-16 03:07:00,58.3,56.5,29.85,NNE,21,0.0,0.0,94,0.00,,,0.01,meteohub,2013-06-16 08:07:00,
2013-06-16 03:12:00,58.6,56.8,29.85,NNE,21,0.0,0.0,94,0.00,,,0.01,meteohub,2013-06-16 08:12:00,
2013-06-16 03:17:00,58.5,56.7,29.86,NNE,21,0.0,0.0,94,0.00,,,0.01,meteohub,2013-06-16 08:17:00,
2013-06-16 03:22:00,58.5,56.7,29.86,NNE,21,0.0,0.0,94,0.00,,,0.01,meteohub,2013-06-16 08:22:00,
2013-06-16 03:27:00,58.5,56.7,29.86,NNE,21,0.0,0.0,94,0.00,,,0.01,meteohub,2013-06-16 08:27:00,
2013-06-16 03:32:00,58.6,56.8,29.86,NNE,21,0.0,0.0,94,0.00,,,0.01,meteohub,2013-06-16 08:32:00,
2013-06-16 03:37:00,58.6,56.8,29.86,NNE,21,0.0,0.0,94,0.00,,,0.01,meteohub,2013-06-16 08:37:00,
2013-06-16 03:42:00,58.8,57.0,29.86,NNE,21,0.0,0.0,94,0.00,,,0.01,meteohub,2013-06-16 08:42:00,
2013-06-16 03:47:00,58.8,57.0,29.86,NNE,21,0.0,0.0,94,0.00,,,0.01,meteohub,2013-06-16 08:47:00,
2013-06-16 03:52:00,58.8,57.0,29.86,NNE,21,0.0,0.0,94,0.00,,,0.01,meteohub,2013-06-16 08:52:00,
2013-06-16 03:57:00,58.6,56.8,29.86,NNE,21,0.0,0.0,94,0.00,,,0.01,meteohub,2013-06-16 08:57:00,
2013-06-16 04:02:00,58.5,56.7,29.86,NNE,21,0.0,0.0,94,0.00,,,0.01,meteohub,2013-06-16 09:02:00,
2013-06-16 04:07:00,58.1,56.3,29.86,NNE,21,0.0,0.0,94,0.00,,,0.01,meteohub,2013-06-16 09:07:00,
2013-06-16 04:12:00,57.7,55.9,29.86,NNE,21,0.0,0.0,94,0.00,,,0.01,meteohub,2013-06-16 09:12:00,
2013-06-16 04:17:00,57.7,55.9,29.86,NNE,21,0.0,0.0,94,0.00,,,0.01,meteohub,2013-06-16 09:17:00,
2013-06-16 04:22:00,57.6,55.8,29.86,NNE,21,0.0,0.0,94,0.00,,,0.01,meteohub,2013-06-16 09:22:00,
2013-06-16 04:27:00,57.6,55.8,29.86,NNE,21,0.0,0.0,94,0.00,,,0.01,meteohub,2013-06-16 09:27:00,
2013-06-16 04:32:00,57.4,55.6,29.87,NNE,21,0.0,0.0,94,0.00,,,0.01,meteohub,2013-06-16 09:32:00,
2013-06-16 04:37:00,57.6,55.8,29.87,NNE,21,0.0,0.0,94,0.00,,,0.01,meteohub,2013-06-16 09:37:00,
2013-06-16 04:42:00,57.6,56.1,29.88,NNE,21,0.0,0.0,95,0.00,,,0.01,meteohub,2013-06-16 09:42:00,
2013-06-16 04:47:00,57.6,55.8,29.88,NNE,21,0.0,0.0,94,0.00,,,0.01,meteohub,2013-06-16 09:47:00,
2013-06-16 04:52:00,57.4,55.6,29.88,NNE,21,0.0,0.0,94,0.00,,,0.01,meteohub,2013-06-16 09:52:00,
2013-06-16 04:57:00,57.0,55.2,29.88,NNE,21,0.0,1.0,94,0.00,,,0.01,meteohub,2013-06-16 09:57:00,
2013-06-16 05:02:00,56.8,55.2,29.88,NNE,21,0.0,1.0,94,0.00,,,0.01,meteohub,2013-06-16 10:02:00,
2013-06-16 05:07:00,56.8,55.2,29.88,NNE,21,0.0,1.0,94,0.00,,,0.01,meteohub,2013-06-16 10:07:00,
2013-06-16 05:12:00,56.8,55.4,29.87,NNE,21,0.0,0.0,95,0.00,,,0.01,meteohub,2013-06-16 10:12:00,
2013-06-16 05:17:00,56.8,55.4,29.87,NNE,21,0.0,0.0,95,0.00,,,0.01,meteohub,2013-06-16 10:17:00,
2013-06-16 05:22:00,56.8,55.2,29.86,NNE,21,0.0,0.0,94,0.00,,,0.01,meteohub,2013-06-16 10:22:00,
2013-06-16 05:27:00,56.5,54.9,29.86,NNE,21,0.0,0.0,94,0.00,,,0.01,meteohub,2013-06-16 10:27:00,
2013-06-16 05:32:00,56.5,54.9,29.86,NNE,21,0.0,0.0,94,0.00,,,0.01,meteohub,2013-06-16 10:32:00,
2013-06-16 05:37:00,56.5,55.0,29.87,NNE,21,0.0,0.0,95,0.00,,,0.01,meteohub,2013-06-16 10:37:00,
2013-06-16 05:42:00,56.7,55.2,29.87,NNE,21,0.0,0.0,95,0.00,,,0.01,meteohub,2013-06-16 10:42:00,
2013-06-16 05:47:00,56.8,55.4,29.88,NNE,21,0.0,0.0,95,0.00,,,0.01,meteohub,2013-06-16 10:47:00,
2013-06-16 05:52:00,56.8,55.4,29.86,NNE,21,0.0,0.0,95,0.00,,,0.01,meteohub,2013-06-16 10:52:00,
2013-06-16 10:41:00,72.1,55.6,29.91,North,355,0.0,3.0,56,0.00,,,0.01,meteohub,2013-06-16 15:41:00,
2013-06-16 10:46:00,72.7,59.7,29.89,NW,322,0.0,3.0,64,0.00,,,0.01,meteohub,2013-06-16 15:46:00,
2013-06-16 10:51:00,73.2,59.9,29.89,NNE,21,0.0,3.0,63,0.00,,,0.01,meteohub,2013-06-16 15:51:00,
2013-06-16 10:56:00,73.8,59.9,29.89,NW,306,0.0,3.0,62,0.00,,,0.01,meteohub,2013-06-16 15:56:00,
2013-06-16 11:01:00,74.1,59.4,29.89,NE,55,0.0,3.0,60,0.00,,,0.01,meteohub,2013-06-16 16:01:00,
2013-06-16 11:06:00,74.5,58.8,29.89,NE,37,1.0,5.0,58,0.00,,,0.01,meteohub,2013-06-16 16:06:00,
2013-06-16 11:11:00,75.4,59.0,29.88,North,11,0.0,5.0,57,0.00,,,0.01,meteohub,2013-06-16 16:11:00,
2013-06-16 11:17:00,76.6,58.3,29.88,NNW,346,0.0,3.0,53,0.00,,,0.01,meteohub,2013-06-16 16:17:00,
2013-06-16 11:22:00,77.2,57.7,29.88,WSW,254,1.0,4.0,51,0.00,,,0.01,meteohub,2013-06-16 16:22:00,
2013-06-16 11:27:00,77.7,57.0,29.88,NE,40,2.0,7.0,49,0.00,,,0.01,meteohub,2013-06-16 16:27:00,
2013-06-16 11:32:00,78.3,58.1,29.88,ENE,72,0.0,7.0,50,0.00,,,0.01,meteohub,2013-06-16 16:32:00,
2013-06-16 11:37:00,78.6,56.7,29.88,NE,52,2.0,7.0,47,0.00,,,0.01,meteohub,2013-06-16 16:37:00,
2013-06-16 11:42:00,79.0,57.0,29.88,NE,44,0.0,7.0,47,0.00,,,0.01,meteohub,2013-06-16 16:42:00,
2013-06-16 11:47:00,79.2,56.7,29.87,NE,53,4.0,5.0,46,0.00,,,0.01,meteohub,2013-06-16 16:47:00,
2013-06-16 11:52:00,79.3,56.8,29.87,NNE,24,0.0,6.0,46,0.00,,,0.01,meteohub,2013-06-16 16:52:00,
2013-06-16 11:57:00,79.7,55.2,29.87,NNW,330,0.0,6.0,43,0.00,,,0.01,meteohub,2013-06-16 16:57:00,
2013-06-16 12:02:00,80.1,54.9,29.87,North,10,0.0,6.0,42,0.00,,,0.01,meteohub,2013-06-16 17:02:00,
2013-06-16 12:07:00,80.2,54.3,29.87,NW,311,1.0,5.0,41,0.00,,,0.01,meteohub,2013-06-16 17:07:00,
2013-06-16 12:12:00,80.4,55.2,29.87,WSW,246,2.0,6.0,42,0.00,,,0.01,meteohub,2013-06-16 17:12:00,
2013-06-16 12:17:00,80.2,55.8,29.87,ENE,69,3.0,6.0,43,0.00,,,0.01,meteohub,2013-06-16 17:17:00,
2013-06-16 12:22:00,80.6,56.7,29.87,NW,317,2.0,9.0,44,0.00,,,0.01,meteohub,2013-06-16 17:22:00,
2013-06-16 12:27:00,80.8,56.1,29.87,NW,312,1.0,9.0,43,0.00,,,0.01,meteohub,2013-06-16 17:27:00,
2013-06-16 12:32:00,81.1,55.2,29.87,NE,41,1.0,9.0,41,0.00,,,0.01,meteohub,2013-06-16 17:32:00,
2013-06-16 12:37:00,81.0,54.3,29.87,West,268,0.0,7.0,40,0.00,,,0.01,meteohub,2013-06-16 17:37:00,
2013-06-16 12:42:00,81.1,55.9,29.87,WNW,286,0.0,7.0,42,0.00,,,0.01,meteohub,2013-06-16 17:42:00,
2013-06-16 12:47:00,81.1,55.9,29.87,North,5,1.0,6.0,42,0.00,,,0.01,meteohub,2013-06-16 17:47:00,
2013-06-16 12:52:00,81.1,55.9,29.87,NE,39,2.0,6.0,42,0.00,,,0.01,meteohub,2013-06-16 17:52:00,
2013-06-16 12:57:00,81.0,56.3,29.86,NE,52,0.0,6.0,43,0.00,,,0.01,meteohub,2013-06-16 17:57:00,
2013-06-16 13:02:00,82.0,58.6,29.86,NE,54,0.0,4.0,45,0.00,,,0.01,meteohub,2013-06-16 18:02:00,
2013-06-16 13:07:00,82.6,55.0,29.86,WSW,252,3.0,4.0,39,0.00,,,0.01,meteohub,2013-06-16 18:07:00,
2013-06-16 13:12:00,82.9,54.7,29.86,ENE,61,3.0,9.0,38,0.00,,,0.01,meteohub,2013-06-16 18:12:00,
2013-06-16 13:17:00,82.6,54.3,29.86,ENE,68,0.0,9.0,38,0.00,,,0.01,meteohub,2013-06-16 18:17:00,
2013-06-16 13:22:00,82.8,53.8,29.86,East,79,0.0,9.0,37,0.00,,,0.01,meteohub,2013-06-16 18:22:00,
2013-06-16 13:27:00,83.1,55.6,29.86,NE,55,0.0,7.0,39,0.00,,,0.01,meteohub,2013-06-16 18:27:00,
2013-06-16 13:32:00,83.7,54.7,29.87,NE,41,2.0,7.0,37,0.00,,,0.01,meteohub,2013-06-16 18:32:00,
2013-06-16 13:37:00,83.7,54.0,29.86,ENE,60,2.0,6.0,36,0.00,,,0.01,meteohub,2013-06-16 18:37:00,
2013-06-16 13:42:00,83.1,54.9,29.86,WNW,298,0.0,6.0,38,0.00,,,0.01,meteohub,2013-06-16 18:42:00,
2013-06-16 13:47:00,82.9,54.7,29.86,ENE,57,0.0,6.0,38,0.00,,,0.01,meteohub,2013-06-16 18:47:00,
2013-06-16 13:52:00,83.7,51.4,29.87,NE,44,1.0,5.0,33,0.00,,,0.01,meteohub,2013-06-16 18:52:00,
2013-06-16 13:57:00,83.8,50.0,29.87,East,82,0.0,11.0,31,0.00,,,0.01,meteohub,2013-06-16 18:57:00,
2013-06-16 14:02:00,84.0,49.3,29.87,ENE,73,3.0,15.0,30,0.00,,,0.01,meteohub,2013-06-16 19:02:00,
2013-06-16 14:07:00,84.0,50.2,29.86,ENE,65,0.0,15.0,31,0.00,,,0.01,meteohub,2013-06-16 19:07:00,
2013-06-16 14:12:00,84.9,50.9,29.86,NE,37,1.0,15.0,31,0.00,,,0.01,meteohub,2013-06-16 19:12:00,
2013-06-16 14:17:00,85.6,52.3,29.86,East,82,0.0,6.0,32,0.00,,,0.01,meteohub,2013-06-16 19:17:00,
2013-06-16 14:22:00,85.5,51.4,29.87,ENE,75,1.0,6.0,31,0.00,,,0.01,meteohub,2013-06-16 19:22:00,
2013-06-16 14:27:00,85.3,51.3,29.87,ENE,75,1.0,6.0,31,0.00,,,0.01,meteohub,2013-06-16 19:27:00,
2013-06-16 14:32:00,85.5,51.4,29.87,NW,326,2.0,6.0,31,0.00,,,0.01,meteohub,2013-06-16 19:32:00,
2013-06-16 14:37:00,85.8,52.5,29.86,East,84,3.0,6.0,32,0.00,,,0.01,meteohub,2013-06-16 19:37:00,
2013-06-16 14:42:00,86.2,52.0,29.86,ENE,67,1.0,6.0,31,0.00,,,0.01,meteohub,2013-06-16 19:42:00,
2013-06-16 14:47:00,85.8,52.5,29.87,East,82,0.0,6.0,32,0.00,,,0.01,meteohub,2013-06-16 19:47:00,
2013-06-16 14:52:00,86.4,52.2,29.87,NE,42,0.0,6.0,31,0.00,,,0.01,meteohub,2013-06-16 19:52:00,
2013-06-16 14:57:00,85.8,51.6,29.87,North,349,0.0,5.0,31,0.00,,,0.01,meteohub,2013-06-16 19:57:00,
2013-06-16 15:02:00,85.6,53.2,29.86,WNW,291,0.0,6.0,33,0.00,,,0.01,meteohub,2013-06-16 20:02:00,
2013-06-16 15:07:00,85.5,52.2,29.86,West,281,0.0,6.0,32,0.00,,,0.01,meteohub,2013-06-16 20:07:00,
2013-06-16 15:12:00,85.5,52.2,29.86,NE,51,0.0,10.0,32,0.00,,,0.01,meteohub,2013-06-16 20:12:00,
2013-06-16 15:17:00,86.2,52.9,29.86,NNE,33,1.0,10.0,32,0.00,,,0.01,meteohub,2013-06-16 20:17:00,
2013-06-16 15:22:00,86.5,55.6,29.85,ENE,69,0.0,10.0,35,0.00,,,0.01,meteohub,2013-06-16 20:22:00,
2013-06-16 15:27:00,86.5,54.0,29.86,North,355,1.0,7.0,33,0.00,,,0.01,meteohub,2013-06-16 20:27:00,
2013-06-16 15:32:00,86.7,52.5,29.85,NE,49,0.0,7.0,31,0.00,,,0.01,meteohub,2013-06-16 20:32:00,
2013-06-16 15:37:00,86.5,53.2,29.85,ENE,63,4.0,7.0,32,0.00,,,0.01,meteohub,2013-06-16 20:37:00,
2013-06-16 15:42:00,86.4,53.1,29.85,ENE,60,0.0,7.0,32,0.00,,,0.01,meteohub,2013-06-16 20:42:00,
2013-06-16 15:47:00,87.1,56.8,29.85,ENE,59,0.0,7.0,36,0.00,,,0.01,meteohub,2013-06-16 20:47:00,
2013-06-16 15:52:00,87.3,52.9,29.85,WSW,249,1.0,4.0,31,0.00,,,0.01,meteohub,2013-06-16 20:52:00,
2013-06-16 15:57:00,86.9,52.7,29.84,NE,41,0.0,4.0,31,0.00,,,0.01,meteohub,2013-06-16 20:57:00,
2013-06-16 16:02:00,86.7,54.1,29.84,NE,42,0.0,5.0,33,0.00,,,0.01,meteohub,2013-06-16 21:02:00,
2013-06-16 16:07:00,86.2,52.9,29.84,West,267,3.0,5.0,32,0.00,,,0.01,meteohub,2013-06-16 21:07:00,
2013-06-16 16:12:00,86.2,52.9,29.83,NE,42,1.0,4.0,32,0.00,,,0.01,meteohub,2013-06-16 21:12:00,
2013-06-16 16:17:00,85.8,52.5,29.83,West,274,5.0,6.0,32,0.00,,,0.01,meteohub,2013-06-16 21:17:00,
2013-06-16 16:22:00,85.6,52.3,29.83,North,355,1.0,9.0,32,0.00,,,0.01,meteohub,2013-06-16 21:22:00,
2013-06-16 16:27:00,86.4,51.3,29.83,ENE,67,2.0,9.0,30,0.00,,,0.01,meteohub,2013-06-16 21:27:00,
2013-06-16 16:32:00,86.4,52.2,29.83,East,80,2.0,9.0,31,0.00,,,0.01,meteohub,2013-06-16 21:32:00,
2013-06-16 16:37:00,85.8,51.6,29.83,ENE,59,0.0,9.0,31,0.00,,,0.01,meteohub,2013-06-16 21:37:00,
2013-06-16 16:42:00,86.0,51.8,29.83,North,5,0.0,9.0,31,0.00,,,0.01,meteohub,2013-06-16 21:42:00,
2013-06-16 16:47:00,85.8,50.7,29.83,ENE,69,0.0,9.0,30,0.00,,,0.01,meteohub,2013-06-16 21:47:00,
2013-06-16 16:52:00,85.8,51.6,29.83,NE,39,1.0,6.0,31,0.00,,,0.01,meteohub,2013-06-16 21:52:00,
2013-06-16 16:57:00,86.5,52.3,29.82,NE,38,0.0,6.0,31,0.00,,,0.01,meteohub,2013-06-16 21:57:00,
2013-06-16 17:02:00,86.2,51.1,29.82,NNE,13,0.0,6.0,30,0.00,,,0.01,meteohub,2013-06-16 22:02:00,
2013-06-16 17:07:00,86.2,53.8,29.82,NNW,340,0.0,6.0,33,0.00,,,0.01,meteohub,2013-06-16 22:07:00,
2013-06-16 17:12:00,86.2,52.9,29.82,NW,323,0.0,4.0,32,0.00,,,0.01,meteohub,2013-06-16 22:12:00,
2013-06-16 17:17:00,86.4,52.2,29.82,NE,40,0.0,3.0,31,0.00,,,0.01,meteohub,2013-06-16 22:17:00,
2013-06-16 17:22:00,85.6,51.6,29.79,NNE,25,0.0,5.0,31,0.00,,,0.01,meteohub,2013-06-16 22:22:00,
2013-06-16 17:27:00,85.3,52.9,29.79,NNE,24,0.0,5.0,33,0.00,,,0.01,meteohub,2013-06-16 22:27:00,
2013-06-16 17:32:00,84.7,51.6,29.79,NE,38,0.0,5.0,32,0.00,,,0.01,meteohub,2013-06-16 22:32:00,
2013-06-16 17:37:00,84.6,52.3,29.79,WNW,284,0.0,3.0,33,0.00,,,0.01,meteohub,2013-06-16 22:37:00,
2013-06-16 17:42:00,84.6,51.4,29.79,NNW,338,1.0,3.0,32,0.00,,,0.01,meteohub,2013-06-16 22:42:00,
2013-06-16 17:47:00,84.7,54.1,29.79,NNE,17,0.0,3.0,35,0.00,,,0.01,meteohub,2013-06-16 22:47:00,
2013-06-16 17:52:00,84.4,52.2,29.79,NNE,30,0.0,3.0,33,0.00,,,0.01,meteohub,2013-06-16 22:52:00,
2013-06-16 17:57:00,84.4,52.2,29.79,NNE,32,0.0,3.0,33,0.00,,,0.01,meteohub,2013-06-16 22:57:00,
2013-06-16 18:02:00,84.0,52.7,29.79,NE,51,0.0,3.0,34,0.00,,,0.01,meteohub,2013-06-16 23:02:00,
2013-06-16 18:07:00,83.7,53.1,29.78,NE,46,0.0,3.0,35,0.00,,,0.01,meteohub,2013-06-16 23:07:00,
2013-06-16 18:12:00,82.9,52.5,29.78,NE,46,0.0,3.0,35,0.00,,,0.01,meteohub,2013-06-16 23:12:00,
2013-06-16 18:17:00,82.9,52.5,29.79,NNE,18,0.0,3.0,35,0.00,,,0.01,meteohub,2013-06-16 23:17:00,
2013-06-16 18:22:00,82.6,53.6,29.81,NE,37,21.0,21.0,37,0.00,,,0.01,meteohub,2013-06-16 23:22:00,
2013-06-16 18:27:00,80.8,55.6,29.84,East,82,4.0,21.0,42,0.00,,,0.01,meteohub,2013-06-16 23:27:00,
2013-06-16 18:32:00,76.6,56.7,29.86,East,84,9.0,21.0,50,0.00,,,0.01,meteohub,2013-06-16 23:32:00,
2013-06-16 18:37:00,72.7,57.0,29.87,ENE,74,1.0,21.0,58,0.00,,,0.01,meteohub,2013-06-16 23:37:00,
2013-06-16 18:42:00,70.2,57.4,29.86,ENE,74,1.0,18.0,64,0.00,,,0.01,meteohub,2013-06-16 23:42:00,
2013-06-16 18:47:00,69.1,57.7,29.86,ENE,77,2.0,9.0,67,0.00,,,0.01,meteohub,2013-06-16 23:47:00,
2013-06-16 18:52:00,68.7,57.4,29.87,East,84,3.0,6.0,67,0.00,,,0.01,meteohub,2013-06-16 23:52:00,
2013-06-16 18:57:00,69.1,58.1,29.88,ENE,78,1.0,4.0,68,0.00,,,0.01,meteohub,2013-06-16 23:57:00,
2013-06-16 19:02:00,69.1,58.1,29.88,ENE,78,0.0,4.0,68,0.00,,,0.01,meteohub,2013-06-17 00:02:00,
2013-06-16 19:07:00,69.3,57.4,29.87,ENE,78,0.0,4.0,66,0.00,,,0.00,meteohub,2013-06-17 00:07:00,
2013-06-16 19:12:00,69.3,58.3,29.86,ENE,78,0.0,3.0,68,0.00,,,0.00,meteohub,2013-06-17 00:12:00,
2013-06-16 19:17:00,69.3,60.3,29.84,ENE,78,0.0,3.0,73,0.00,,,0.00,meteohub,2013-06-17 00:17:00,
2013-06-16 19:22:00,68.7,60.8,29.84,ENE,78,0.0,1.0,76,0.00,,,0.00,meteohub,2013-06-17 00:22:00,
2013-06-16 19:27:00,68.4,61.2,29.84,ENE,78,0.0,0.0,78,0.00,,,0.00,meteohub,2013-06-17 00:27:00,
2013-06-16 19:32:00,67.6,61.2,29.83,ENE,78,0.0,0.0,80,0.00,,,0.00,meteohub,2013-06-17 00:32:00,
2013-06-16 19:37:00,67.1,61.2,29.83,ENE,78,0.0,0.0,81,0.00,,,0.00,meteohub,2013-06-17 00:37:00,
2013-06-16 19:42:00,66.7,61.0,29.83,ENE,78,0.0,0.0,82,0.00,,,0.00,meteohub,2013-06-17 00:42:00,
2013-06-16 19:47:00,66.7,61.7,29.83,ENE,78,0.0,0.0,84,0.00,,,0.00,meteohub,2013-06-17 00:47:00,
2013-06-16 19:52:00,66.6,61.0,29.82,ENE,78,0.0,0.0,82,0.00,,,0.00,meteohub,2013-06-17 00:52:00,
2013-06-16 19:57:00,66.4,60.4,29.83,ENE,78,0.0,0.0,81,0.00,,,0.00,meteohub,2013-06-17 00:57:00,
2013-06-16 20:02:00,66.4,60.8,29.82,ENE,78,0.0,0.0,82,0.00,,,0.00,meteohub,2013-06-17 01:02:00,
2013-06-16 20:07:00,66.6,61.0,29.82,ENE,78,0.0,0.0,82,0.00,,,0.00,meteohub,2013-06-17 01:07:00,
2013-06-16 20:12:00,66.6,61.0,29.82,ENE,78,0.0,0.0,82,0.00,,,0.00,meteohub,2013-06-17 01:12:00,
2013-06-16 20:17:00,66.4,60.8,29.82,ENE,78,0.0,0.0,82,0.00,,,0.00,meteohub,2013-06-17 01:17:00,
2013-06-16 20:22:00,66.9,61.5,29.82,ENE,78,0.0,0.0,83,0.00,,,0.00,meteohub,2013-06-17 01:22:00,
2013-06-16 20:27:00,66.9,61.2,29.82,ENE,78,0.0,0.0,82,0.00,,,0.00,meteohub,2013-06-17 01:27:00,
2013-06-16 20:32:00,66.7,61.0,29.81,ENE,78,0.0,0.0,82,0.00,,,0.00,meteohub,2013-06-17 01:32:00,
2013-06-16 20:37:00,66.7,61.0,29.81,ENE,78,0.0,0.0,82,0.00,,,0.00,meteohub,2013-06-17 01:37:00,
2013-06-16 20:42:00,66.9,61.2,29.81,ENE,78,0.0,0.0,82,0.00,,,0.00,meteohub,2013-06-17 01:42:00,
2013-06-16 20:47:00,66.9,61.2,29.81,ENE,78,0.0,0.0,82,0.00,,,0.00,meteohub,2013-06-17 01:47:00,
2013-06-16 20:52:00,67.3,61.5,29.81,ENE,78,0.0,0.0,82,0.00,,,0.00,meteohub,2013-06-17 01:52:00,
2013-06-16 20:57:00,66.7,61.0,29.81,ENE,78,0.0,0.0,82,0.00,,,0.00,meteohub,2013-06-17 01:57:00,
2013-06-16 21:02:00,66.4,60.8,29.82,ENE,78,0.0,0.0,82,0.00,,,0.00,meteohub,2013-06-17 02:02:00,
2013-06-16 21:07:00,66.0,60.4,29.82,ENE,78,0.0,0.0,82,0.00,,,0.00,meteohub,2013-06-17 02:07:00,
2013-06-16 21:12:00,65.8,60.3,29.82,ENE,78,0.0,0.0,82,0.00,,,0.00,meteohub,2013-06-17 02:12:00,
2013-06-16 21:17:00,65.7,60.1,29.82,ENE,78,0.0,0.0,82,0.00,,,0.00,meteohub,2013-06-17 02:17:00,
2013-06-16 21:22:00,65.7,60.1,29.83,ENE,78,0.0,0.0,82,0.00,,,0.00,meteohub,2013-06-17 02:22:00,
2013-06-16 21:27:00,65.7,60.1,29.83,ENE,78,0.0,1.0,82,0.00,,,0.00,meteohub,2013-06-17 02:27:00,
2013-06-16 21:32:00,65.1,59.9,29.83,ENE,78,0.0,1.0,83,0.00,,,0.00,meteohub,2013-06-17 02:32:00,
2013-06-16 21:37:00,64.9,59.9,29.84,ENE,78,0.0,1.0,84,0.00,,,0.00,meteohub,2013-06-17 02:37:00,
2013-06-16 21:42:00,64.9,60.3,29.84,ENE,78,0.0,0.0,85,0.00,,,0.00,meteohub,2013-06-17 02:42:00,
2013-06-16 21:47:00,64.9,60.3,29.84,ENE,78,0.0,1.0,85,0.00,,,0.00,meteohub,2013-06-17 02:47:00,
2013-06-16 21:52:00,64.8,60.4,29.84,ENE,78,0.0,1.0,86,0.00,,,0.00,meteohub,2013-06-17 02:52:00,
2013-06-16 21:57:00,64.8,60.4,29.84,ENE,78,0.0,1.0,86,0.00,,,0.00,meteohub,2013-06-17 02:57:00,
2013-06-16 22:02:00,64.8,60.1,29.84,ENE,78,0.0,0.0,85,0.00,,,0.00,meteohub,2013-06-17 03:02:00,
2013-06-16 22:07:00,64.8,60.1,29.84,ENE,78,0.0,0.0,85,0.00,,,0.00,meteohub,2013-06-17 03:07:00,
2013-06-16 22:12:00,64.6,59.9,29.84,ENE,78,0.0,0.0,85,0.00,,,0.00,meteohub,2013-06-17 03:12:00,
2013-06-16 22:17:00,64.2,59.5,29.84,ENE,78,0.0,0.0,85,0.00,,,0.00,meteohub,2013-06-17 03:17:00,
2013-06-16 22:22:00,64.0,59.4,29.84,ENE,78,0.0,0.0,85,0.00,,,0.00,meteohub,2013-06-17 03:22:00,
2013-06-16 22:27:00,64.2,59.5,29.83,ENE,78,0.0,0.0,85,0.00,,,0.00,meteohub,2013-06-17 03:27:00,
2013-06-16 22:32:00,64.2,59.5,29.84,ENE,78,0.0,0.0,85,0.00,,,0.00,meteohub,2013-06-17 03:32:00,
2013-06-16 22:37:00,64.0,59.4,29.84,ENE,78,0.0,0.0,85,0.00,,,0.00,meteohub,2013-06-17 03:37:00,
2013-06-16 22:42:00,64.0,59.4,29.83,ENE,78,0.0,0.0,85,0.00,,,0.00,meteohub,2013-06-17 03:42:00,
2013-06-16 22:47:00,63.9,59.2,29.84,ENE,78,0.0,0.0,85,0.00,,,0.00,meteohub,2013-06-17 03:47:00,
2013-06-16 22:52:00,63.7,59.0,29.84,ENE,78,0.0,0.0,85,0.00,,,0.00,meteohub,2013-06-17 03:52:00,
2013-06-16 22:57:00,63.5,59.2,29.84,ENE,78,0.0,0.0,86,0.00,,,0.00,meteohub,2013-06-17 03:57:00,
2013-06-16 23:01:00,63.5,59.2,29.84,ENE,78,0.0,0.0,86,0.00,,,0.00,meteohub,2013-06-17 04:01:00,
2013-06-16 23:02:00,63.5,59.2,29.84,ENE,78,0.0,0.0,86,0.00,,,0.00,meteohub,2013-06-17 04:02:00,
2013-06-16 23:03:00,63.5,59.2,29.84,ENE,78,0.0,0.0,86,0.00,,,0.00,meteohub,2013-06-17 04:03:00,
2013-06-16 23:05:00,63.3,59.0,29.84,ENE,78,0.0,0.0,86,0.00,,,0.00,meteohub,2013-06-17 04:05:00,
2013-06-16 23:10:00,63.3,59.0,29.84,ENE,78,0.0,0.0,86,0.00,,,0.00,meteohub,2013-06-17 04:10:00,
2013-06-16 23:15:00,63.5,58.8,29.83,ENE,78,0.0,0.0,85,0.00,,,0.00,meteohub,2013-06-17 04:15:00,
2013-06-16 23:20:00,63.5,58.8,29.83,ENE,78,0.0,0.0,85,0.00,,,0.00,meteohub,2013-06-17 04:20:00,
2013-06-16 23:25:00,63.3,58.8,29.83,ENE,78,0.0,1.0,85,0.00,,,0.00,meteohub,2013-06-17 04:25:00,
2013-06-16 23:30:00,63.0,58.5,29.83,ENE,78,0.0,1.0,85,0.00,,,0.00,meteohub,2013-06-17 04:30:00,
2013-06-16 23:36:00,63.0,58.6,29.83,ENE,78,0.0,1.0,86,0.00,,,0.00,meteohub,2013-06-17 04:36:00,
2013-06-16 23:41:00,62.8,58.5,29.83,ENE,78,0.0,0.0,86,0.00,,,0.00,meteohub,2013-06-17 04:41:00,
2013-06-16 23:46:00,62.6,58.3,29.83,ENE,78,0.0,0.0,86,0.00,,,0.00,meteohub,2013-06-17 04:46:00,
2013-06-16 23:51:00,62.4,58.1,29.83,ENE,78,0.0,0.0,86,0.00,,,0.00,meteohub,2013-06-17 04:51:00,
2013-06-16 23:56:00,62.2,57.9,29.83,ENE,78,0.0,0.0,86,0.00,,,0.00,meteohub,2013-06-17 04:56:00,